DW4338 Bergen NO current weather conditions

sailwx.info

Wind from 279 at 19 knots gusting 34

Air temperature 8.3° C
Dewpoint 7.3° C

Last reported at 2016-Dec-08 10:47 UTC.
Time now 2016-Dec-08 11:56 UTC

Location: N 60°31' E 004°54'.
View on Google Maps.

See reports from other nearby stations

  
Tides and Currents Weather Stations Pressure Air Temp Water Temp Dewpoint Dewpoint Depression Visibility Wind Speed Wind Dir Waves Ship Positions
date/time (UTC)wind fromknots sea level pressurealtimeterstation pressurevisibilityair tempwater tempwave heightnotes
2016-Dec-08 10:47 279 19 gusting 34 8.3
2016-Dec-08 10:32 274 15 gusting 28 8.3
2016-Dec-08 10:17 281 25 gusting 39 8.3
2016-Dec-08 10:01 299 24 gusting 37 8.3
2016-Dec-08 09:46 279 28 gusting 42 8.9
2016-Dec-08 09:31 279 33 gusting 51 8.9
2016-Dec-08 09:16 271 37 gusting 59 8.9
2016-Dec-08 09:01 283 38 gusting 49 8.9
2016-Dec-08 08:46 279 43 gusting 57 8.9
2016-Dec-08 08:31 285 28 gusting 42 8.9
2016-Dec-08 08:16 279 27 gusting 41 8.9
2016-Dec-08 08:01 292 29 gusting 46 8.9
2016-Dec-08 07:46 292 30 gusting 48 8.9
2016-Dec-08 07:31 304 35 gusting 53 8.9
2016-Dec-08 07:16 286 44 gusting 62 8.9
2016-Dec-08 07:01 284 39 gusting 54 8.9
2016-Dec-08 06:46 286 31 gusting 53 8.9
2016-Dec-08 06:31 281 36 gusting 56 8.9
2016-Dec-08 06:16 283 37 gusting 59 8.9
2016-Dec-08 06:01 275 46 gusting 65 8.9
2016-Dec-08 05:46 259 35 gusting 55 8.9
2016-Dec-08 05:31 292 31 gusting 53 8.9
2016-Dec-08 05:16 264 38 gusting 58 8.9
2016-Dec-08 05:01 289 39 gusting 58 9.4
2016-Dec-08 04:46 262 41 gusting 59 9.4
2016-Dec-08 04:31 282 37 gusting 63 9.4
2016-Dec-08 04:16 282 40 gusting 65 9.4
2016-Dec-08 04:01 279 46 gusting 71 9.4
2016-Dec-08 03:46 279 42 gusting 66 9.4
2016-Dec-08 03:31 271 39 gusting 70 9.4
2016-Dec-08 03:16 277 45 gusting 69 9.4
2016-Dec-08 03:00 264 41 gusting 70 8.9
2016-Dec-08 02:46 275 41 gusting 74 8.9
2016-Dec-08 02:30 236 47 gusting 70 8.9
2016-Dec-08 02:15 258 45 gusting 72 8.9
2016-Dec-08 02:00 273 52 gusting 70 8.9
2016-Dec-08 01:46 304 52 gusting 85 9.4
2016-Dec-08 01:30 253 53 gusting 86 9.4
2016-Dec-08 01:15 259 53 gusting 85 9.4
2016-Dec-08 01:00 360 56 gusting 87 9.4
2016-Dec-08 00:45 241 55 gusting 90 10.0
2016-Dec-08 00:30 250 58 gusting 77 9.4
2016-Dec-08 00:15 255 27 gusting 53 8.9
2016-Dec-08 00:00 196 33 gusting 53 8.9
2016-Dec-07 23:45 186 32 gusting 53 8.9
2016-Dec-07 23:30 219 33 gusting 56 8.9
2016-Dec-07 23:15 211 28 gusting 54 8.9
2016-Dec-07 23:00 211 28 gusting 55 8.9
2016-Dec-07 22:45 217 26 gusting 53 8.9
2016-Dec-07 22:15 183 27 gusting 43 8.9
2016-Dec-07 22:00 240 27 gusting 46 8.9
2016-Dec-07 21:45 202 26 gusting 49 8.9
2016-Dec-07 21:30 234 29 gusting 50 8.9
2016-Dec-07 21:15 213 22 gusting 55 8.3
2016-Dec-07 21:00 175 23 gusting 45 8.3
2016-Dec-07 20:44 246 28 gusting 55 8.3
2016-Dec-07 20:29 174 23 gusting 45 8.3
2016-Dec-07 20:15 145 18 gusting 45 8.3
2016-Dec-07 20:00 176 22 gusting 49 8.3
2016-Dec-07 19:45 211 19 gusting 47 8.3
2016-Dec-07 19:29 218 22 gusting 46 8.3
2016-Dec-07 19:15 202 19 gusting 45 8.3
2016-Dec-07 18:59 211 17 gusting 41 8.3
2016-Dec-07 18:45 193 24 gusting 43 8.3
2016-Dec-07 18:29 191 19 gusting 49 8.3
2016-Dec-07 18:14 224 21 gusting 44 8.3
2016-Dec-07 18:00 198 15 gusting 35 8.3
2016-Dec-07 17:45 186 13 gusting 33 8.3
2016-Dec-07 17:29 234 19 gusting 44 8.3
2016-Dec-07 17:14 219 13 gusting 51 8.3
2016-Dec-07 16:59 140 11 gusting 33 8.3
2016-Dec-07 16:44 181 13 gusting 39 8.3
2016-Dec-07 16:29 136 10 gusting 37 8.3
2016-Dec-07 16:14 161 13 gusting 34 8.3
2016-Dec-07 15:59 148 14 gusting 38 8.3
2016-Dec-07 15:45 219 14 gusting 37 8.3
2016-Dec-07 15:29 184 14 gusting 37 7.8
2016-Dec-07 15:15 244 14 gusting 36 7.8
2016-Dec-07 15:00 158 24 gusting 40 7.8
2016-Dec-07 14:44 188 19 gusting 42 7.8
2016-Dec-07 14:30 161 13 gusting 31 7.8
2016-Dec-07 14:14 167 16 gusting 33 7.8
2016-Dec-07 13:59 162 16 gusting 43 7.8
2016-Dec-07 13:44 126 17 gusting 39 7.8
2016-Dec-07 13:29 167 19 gusting 34 7.8
2016-Dec-07 13:14 193 17 gusting 43 7.8
2016-Dec-07 12:59 151 17 gusting 39 7.2
2016-Dec-07 12:44 188 17 gusting 46 7.2
2016-Dec-07 12:29 169 14 gusting 43 7.2
2016-Dec-07 12:14 164 19 gusting 43 7.2
2016-Dec-07 11:59 172 24 gusting 42 7.2
2016-Dec-07 11:44 138 19 gusting 39 7.2
2016-Dec-07 11:29 146 18 gusting 39 7.2
2016-Dec-07 11:14 203 24 gusting 51 7.2
2016-Dec-07 10:59 154 26 gusting 48 7.2
2016-Dec-07 10:44 156 19 gusting 43 6.7
2016-Dec-07 10:29 170 18 gusting 46 6.7
2016-Dec-07 10:13 144 25 gusting 47 6.7
2016-Dec-07 09:59 150 19 gusting 50 6.7
2016-Dec-07 09:47 149 25 gusting 49 6.7
2016-Dec-07 09:33 157 21 gusting 55 6.7
2016-Dec-07 09:22 191 26 gusting 53 6.7
2016-Dec-07 09:08 147 23 gusting 53 6.1
2016-Dec-07 08:57 145 13 gusting 45 6.1
2016-Dec-07 08:40 131 23 gusting 54 6.1
2016-Dec-07 08:20 178 23 gusting 59 6.1
2016-Dec-07 07:58 149 25 gusting 55 6.1
2016-Dec-07 07:43 198 28 gusting 48 6.1
2016-Dec-07 07:29 213 28 gusting 55 5.6
2016-Dec-07 07:13 150 28 gusting 50 5.6
2016-Dec-07 06:58 163 24 gusting 47 5.6
2016-Dec-07 06:43 163 20 gusting 46 5.0
2016-Dec-07 06:28 159 22 gusting 44 5.0
2016-Dec-07 06:13 131 22 gusting 52 5.0
2016-Dec-07 05:59 167 24 gusting 42 4.4
2016-Dec-07 05:43 138 22 gusting 47 4.4
2016-Dec-07 05:29 159 27 gusting 50 4.4
2016-Dec-07 05:13 144 23 gusting 60 4.4
2016-Dec-07 04:58 144 26 gusting 56 4.4
2016-Dec-07 04:43 111 28 gusting 51 4.4
2016-Dec-07 04:28 145 31 gusting 49 4.4
2016-Dec-07 04:13 150 26 gusting 55 4.4
2016-Dec-07 03:58 138 26 gusting 55 4.4
2016-Dec-07 03:43 180 30 gusting 54 5.0
2016-Dec-07 03:28 183 25 gusting 50 5.0
2016-Dec-07 03:13 142 26 gusting 46 5.0
2016-Dec-07 02:57 154 28 gusting 48 5.0
2016-Dec-07 02:42 152 33 gusting 66 5.0
2016-Dec-07 02:28 158 27 gusting 54 5.0
2016-Dec-07 02:12 163 25 gusting 50 5.0
2016-Dec-07 01:58 150 26 gusting 52 4.4
2016-Dec-07 01:42 165 23 gusting 57 4.4
2016-Dec-07 01:28 143 24 gusting 47 4.4
2016-Dec-07 01:12 165 29 gusting 46 4.4
2016-Dec-07 00:57 134 23 gusting 48 4.4
2016-Dec-07 00:42 140 26 gusting 62 5.0
2016-Dec-07 00:27 142 26 gusting 47 5.0
2016-Dec-07 00:12 182 24 gusting 46 5.0
2016-Dec-06 23:57 174 25 gusting 49 5.6
2016-Dec-06 23:42 184 25 gusting 46 5.0
2016-Dec-06 23:27 165 20 gusting 46 5.0
2016-Dec-06 23:12 155 26 gusting 46 5.0
2016-Dec-06 22:57 150 24 gusting 41 5.0
2016-Dec-06 22:42 158 24 gusting 55 5.0
2016-Dec-06 22:27 153 24 gusting 39 5.0
2016-Dec-06 22:12 214 24 gusting 46 5.0
2016-Dec-06 21:57 148 25 gusting 50 4.4
2016-Dec-06 21:42 144 24 gusting 48 4.4
2016-Dec-06 21:27 163 22 gusting 39 4.4
2016-Dec-06 21:12 133 20 gusting 46 4.4
2016-Dec-06 20:56 143 26 gusting 48 4.4
2016-Dec-06 20:42 138 18 gusting 39 4.4
2016-Dec-06 20:26 156 26 gusting 49 4.4
2016-Dec-06 20:11 163 22 gusting 46 4.4
2016-Dec-06 19:57 142 19 gusting 34 3.9
2016-Dec-06 19:41 180 19 gusting 39 4.4
2016-Dec-06 19:27 173 18 gusting 35 4.4
2016-Dec-06 19:12 139 20 gusting 45 4.4
2016-Dec-06 18:56 140 26 gusting 53 3.9
2016-Dec-06 18:42 143 26 gusting 39 3.9
2016-Dec-06 18:26 136 18 gusting 37 3.9
2016-Dec-06 18:12 140 16 gusting 39 3.9
2016-Dec-06 17:57 142 17 gusting 39 3.9
2016-Dec-06 17:41 149 20 gusting 30 3.9
2016-Dec-06 17:26 138 19 gusting 33 3.9
2016-Dec-06 17:11 144 19 gusting 50 3.9
2016-Dec-06 16:56 158 21 gusting 42 3.9
2016-Dec-06 16:42 144 23 gusting 39 3.3
2016-Dec-06 16:26 134 23 gusting 53 3.3
2016-Dec-06 16:11 148 20 gusting 37 3.3
2016-Dec-06 15:56 144 22 gusting 51 2.8
2016-Dec-06 15:41 150 19 gusting 33 2.8
2016-Dec-06 15:26 149 14 gusting 25 2.8
2016-Dec-06 15:11 148 10 gusting 26 2.8
2016-Dec-06 14:56 140 10 gusting 32 2.8
2016-Dec-06 14:41 140 16 gusting 33 2.8
2016-Dec-06 14:26 144 19 gusting 28 2.8
2016-Dec-06 14:11 139 17 gusting 30 2.8
2016-Dec-06 13:57 136 18 gusting 29 2.8
2016-Dec-06 13:41 154 18 gusting 31 2.8
2016-Dec-06 13:26 144 15 gusting 27 2.8
2016-Dec-06 13:12 144 14 gusting 33 2.8
2016-Dec-06 12:56 191 9 gusting 26 2.2
2016-Dec-06 12:41 174 16 gusting 26 2.2
2016-Dec-06 12:26 178 13 gusting 29 2.2
2016-Dec-06 12:12 138 16 gusting 27 2.2
2016-Dec-06 11:56 153 10 gusting 23 2.2
2016-Dec-06 11:41 184 7 gusting 21 2.2
2016-Dec-06 11:26 224 5 gusting 24 2.2